createdAt,value
2018-11-07T00:02:49.364Z,13.70
2018-11-07T00:07:46.925Z,14.40
2018-11-07T00:12:44.311Z,13.57
2018-11-07T00:17:42.026Z,14.10
2018-11-07T00:22:39.772Z,12.30
2018-11-07T00:27:37.268Z,12.47
2018-11-07T00:32:34.703Z,15.13
2018-11-07T00:37:32.132Z,13.00
2018-11-07T00:42:29.630Z,15.20
2018-11-07T00:47:27.443Z,11.83
2018-11-07T00:52:24.879Z,14.37
2018-11-07T00:57:22.307Z,13.70
2018-11-07T01:02:19.908Z,13.00
2018-11-07T01:07:17.331Z,13.57
2018-11-07T01:12:14.763Z,12.17
2018-11-07T01:17:12.197Z,13.90
2018-11-07T01:22:09.693Z,11.90
2018-11-07T01:27:07.138Z,12.70
2018-11-07T01:32:04.703Z,12.50
2018-11-07T01:37:02.136Z,11.37
2018-11-07T01:41:59.657Z,12.90
2018-11-07T01:46:58.112Z,13.30
2018-11-07T01:51:55.553Z,13.70
2018-11-07T01:56:53.074Z,12.73
2018-11-07T02:01:50.520Z,12.77
2018-11-07T02:06:47.960Z,14.73
2018-11-07T02:11:45.423Z,13.27
2018-11-07T02:16:44.226Z,13.07
2018-11-07T02:21:41.667Z,12.27
2018-11-07T02:26:39.107Z,11.70
2018-11-07T02:31:36.568Z,13.00
2018-11-07T02:36:34.025Z,11.80
2018-11-07T02:41:31.466Z,12.40
2018-11-07T02:46:30.079Z,11.43
2018-11-07T02:51:27.517Z,10.93
2018-11-07T02:56:24.997Z,12.33
2018-11-07T03:01:22.477Z,11.83
2018-11-07T03:06:19.968Z,11.17
2018-11-07T03:11:17.401Z,12.90
2018-11-07T03:16:17.707Z,12.10
2018-11-07T03:21:15.302Z,11.37
2018-11-07T03:26:12.746Z,12.73
2018-11-07T03:31:10.165Z,13.53
2018-11-07T03:36:07.597Z,11.90
2018-11-07T03:41:05.149Z,10.10
2018-11-07T03:46:08.560Z,12.77
2018-11-07T03:51:06.062Z,12.13
2018-11-07T03:56:03.513Z,12.77
2018-11-07T04:01:00.972Z,11.30
2018-11-07T04:05:58.408Z,11.90
2018-11-07T04:10:55.872Z,12.43
2018-11-07T04:16:02.794Z,12.70
2018-11-07T04:21:00.287Z,13.00
2018-11-07T04:25:57.755Z,12.27
2018-11-07T04:30:55.193Z,13.30
2018-11-07T04:35:52.722Z,12.30
2018-11-07T04:40:50.228Z,12.90
2018-11-07T04:45:48.442Z,12.57
2018-11-07T04:50:45.936Z,12.67
2018-11-07T04:55:43.423Z,11.87
2018-11-07T05:00:40.845Z,12.50
2018-11-07T05:05:38.271Z,12.33
2018-11-07T05:10:35.696Z,12.77
2018-11-07T05:15:33.133Z,12.27
2018-11-07T05:20:30.568Z,11.77
2018-11-07T05:25:28.065Z,12.50
2018-11-07T05:30:25.497Z,10.80
2018-11-07T05:35:22.916Z,11.53
2018-11-07T05:40:20.365Z,11.23
2018-11-07T05:45:17.802Z,9.47
2018-11-07T05:50:15.266Z,9.40
2018-11-07T05:55:12.738Z,9.63
2018-11-07T06:00:11.375Z,10.50
2018-11-07T06:05:09.965Z,11.13
2018-11-07T06:10:09.684Z,10.63
2018-11-07T06:15:08.413Z,11.87
2018-11-07T06:20:06.713Z,9.07
2018-11-07T06:25:04.864Z,8.47
2018-11-07T06:30:02.505Z,10.30
2018-11-07T06:34:59.971Z,9.60
2018-11-07T06:39:57.509Z,9.93
2018-11-07T06:44:54.936Z,10.13
2018-11-07T06:49:52.370Z,10.27
2018-11-07T06:54:49.826Z,10.43
2018-11-07T06:59:47.305Z,10.70
2018-11-07T07:04:44.810Z,10.30
2018-11-07T07:09:42.334Z,10.07
2018-11-07T07:14:40.028Z,9.67
2018-11-07T07:19:37.485Z,9.40
2018-11-07T07:24:34.928Z,8.90
2018-11-07T07:29:32.383Z,9.90
2018-11-07T07:34:29.902Z,9.67
2018-11-07T07:39:27.341Z,9.40
2018-11-07T07:44:24.799Z,8.70
2018-11-07T07:49:22.287Z,8.17
2018-11-07T07:54:19.713Z,9.10
2018-11-07T07:59:17.265Z,7.87
2018-11-07T08:04:14.868Z,7.70
2018-11-07T08:09:13.514Z,7.57
2018-11-07T08:14:11.074Z,8.00
2018-11-07T08:19:09.245Z,7.53
2018-11-07T08:24:06.720Z,6.67
2018-11-07T08:29:04.296Z,7.33
2018-11-07T08:34:01.723Z,6.63
2018-11-07T08:38:59.176Z,6.70
2018-11-07T08:43:56.653Z,7.07
2018-11-07T08:48:54.163Z,6.77
2018-11-07T08:53:51.630Z,6.57
2018-11-07T08:58:49.140Z,5.63
2018-11-07T09:03:46.633Z,6.67
2018-11-07T09:08:44.169Z,5.30
2018-11-07T09:13:41.682Z,5.90
2018-11-07T09:18:39.168Z,5.30
2018-11-07T09:23:36.711Z,5.80
2018-11-07T09:28:34.186Z,5.57
2018-11-07T09:33:31.677Z,4.90
2018-11-07T09:38:29.122Z,5.17
2018-11-07T09:43:26.592Z,4.87
2018-11-07T09:48:24.148Z,3.63
2018-11-07T09:53:21.632Z,5.23
2018-11-07T09:58:19.101Z,4.10
2018-11-07T10:03:16.554Z,4.20
2018-11-07T10:08:14.022Z,4.10
2018-11-07T10:13:11.510Z,4.03
2018-11-07T10:18:08.966Z,3.10
2018-11-07T10:23:06.441Z,2.73
2018-11-07T10:28:04.488Z,2.90
2018-11-07T10:33:01.418Z,2.93
2018-11-07T10:37:59.045Z,3.00
2018-11-07T10:42:56.467Z,2.80
2018-11-07T10:47:55.217Z,2.63
2018-11-07T10:52:54.334Z,2.80
2018-11-07T10:57:53.920Z,2.60
2018-11-07T11:02:57.081Z,2.47
2018-11-07T11:07:54.692Z,2.20
2018-11-07T11:12:52.217Z,2.83
2018-11-07T11:17:49.712Z,2.60
2018-11-07T11:22:47.201Z,2.57
2018-11-07T11:27:44.755Z,2.70
2018-11-07T11:32:42.239Z,2.17
2018-11-07T11:37:40.143Z,2.37
2018-11-07T11:42:37.594Z,1.77
2018-11-07T11:47:35.111Z,2.20
2018-11-07T11:52:32.762Z,1.60
2018-11-07T11:57:30.317Z,1.90
2018-11-07T12:02:27.826Z,2.30
2018-11-07T12:07:25.329Z,1.73
2018-11-07T12:12:22.834Z,1.93
2018-11-07T12:17:20.415Z,2.00
2018-11-07T12:22:17.930Z,2.80
2018-11-07T12:27:15.424Z,2.70
2018-11-07T12:32:13.806Z,2.70
2018-11-07T12:37:11.281Z,2.33
2018-11-07T12:42:12.964Z,2.77
2018-11-07T12:47:10.513Z,2.70
2018-11-07T12:52:08.017Z,2.77
2018-11-07T12:57:05.576Z,3.50
2018-11-07T13:02:03.160Z,2.80
2018-11-07T13:07:00.718Z,2.60
2018-11-07T13:11:58.288Z,3.40
2018-11-07T13:17:01.076Z,3.53
2018-11-07T13:21:58.587Z,3.07
2018-11-07T13:26:56.098Z,3.13
2018-11-07T13:31:53.557Z,3.37
2018-11-07T13:36:51.163Z,3.60
2018-11-07T13:41:48.730Z,4.17
2018-11-07T13:46:47.208Z,4.17
2018-11-07T13:51:44.658Z,4.87
2018-11-07T13:56:42.188Z,3.70
2018-11-07T14:01:39.668Z,4.20
2018-11-07T14:06:37.196Z,3.80
2018-11-07T14:11:34.661Z,3.63
2018-11-07T14:16:33.228Z,3.90
2018-11-07T14:21:30.733Z,3.93
2018-11-07T14:26:28.273Z,4.37
2018-11-07T14:31:25.866Z,4.40
2018-11-07T14:36:23.479Z,3.63
2018-11-07T14:41:20.928Z,4.03
2018-11-07T14:46:28.037Z,4.40
2018-11-07T14:51:25.568Z,4.10
2018-11-07T14:56:23.027Z,3.80
2018-11-07T15:01:20.548Z,3.83
2018-11-07T15:06:18.081Z,5.03
2018-11-07T15:11:15.614Z,3.80
2018-11-07T15:16:15.444Z,4.07
2018-11-07T15:21:12.915Z,4.63
2018-11-07T15:26:10.339Z,5.83
2018-11-07T15:31:07.767Z,5.37
2018-11-07T15:36:05.288Z,6.27
2018-11-07T15:41:02.735Z,6.43
2018-11-07T15:46:07.312Z,4.63
2018-11-07T15:51:11.746Z,5.60
2018-11-07T15:56:09.410Z,5.10
2018-11-07T16:01:06.851Z,5.13
2018-11-07T16:06:04.327Z,4.80
2018-11-07T16:11:01.679Z,4.47
2018-11-07T16:16:12.453Z,4.00
2018-11-07T16:21:09.885Z,4.73
2018-11-07T16:26:07.277Z,4.37
2018-11-07T16:31:05.715Z,5.30
2018-11-07T16:36:03.091Z,4.33
2018-11-07T16:41:00.518Z,5.00
2018-11-07T16:46:05.827Z,5.10
2018-11-07T16:51:03.297Z,5.43
2018-11-07T16:56:00.669Z,5.00
2018-11-07T17:00:58.120Z,4.67
2018-11-07T17:05:55.479Z,4.73
2018-11-07T17:10:52.898Z,5.90
2018-11-07T17:15:52.337Z,4.67
2018-11-07T17:20:49.912Z,5.20
2018-11-07T17:25:47.275Z,5.30
2018-11-07T17:30:44.654Z,6.43
2018-11-07T17:35:42.055Z,6.27
2018-11-07T17:40:39.502Z,6.47
2018-11-07T17:45:36.928Z,5.47
2018-11-07T17:50:34.342Z,5.80
2018-11-07T17:55:31.742Z,6.50
2018-11-07T18:00:32.718Z,5.60
2018-11-07T18:05:30.190Z,5.60
2018-11-07T18:10:27.625Z,5.57
2018-11-07T18:15:25.094Z,5.50
2018-11-07T18:21:25.737Z,4.60
2018-11-07T18:26:23.357Z,4.77
2018-11-07T18:31:20.814Z,5.57
2018-11-07T18:36:18.191Z,5.03
2018-11-07T18:41:15.691Z,5.20
2018-11-07T18:46:19.562Z,4.60
2018-11-07T18:51:17.198Z,4.10
2018-11-07T18:56:14.573Z,3.93
2018-11-07T19:01:12.039Z,4.50
2018-11-07T19:06:09.395Z,4.17
2018-11-07T19:11:06.901Z,4.90
2018-11-07T19:16:13.153Z,3.77
2018-11-07T19:21:10.590Z,3.97
2018-11-07T19:26:09.279Z,4.03
2018-11-07T19:31:09.005Z,4.03
2018-11-07T19:36:06.491Z,3.60
2018-11-07T19:41:04.235Z,3.63
2018-11-07T19:46:06.780Z,4.50
2018-11-07T19:51:04.941Z,5.00
2018-11-07T19:56:02.354Z,3.97
2018-11-07T20:00:59.918Z,4.57
2018-11-07T20:05:57.310Z,4.37
2018-11-07T20:10:55.022Z,3.93
2018-11-07T20:15:52.482Z,4.27
2018-11-07T20:20:49.907Z,4.30
2018-11-07T20:25:47.269Z,3.80
2018-11-07T20:30:44.789Z,3.70
2018-11-07T20:35:43.752Z,3.90
2018-11-07T20:40:41.330Z,3.77
2018-11-07T20:45:39.096Z,3.87
2018-11-07T20:50:36.636Z,3.80
2018-11-07T20:55:34.032Z,4.03
2018-11-07T21:00:31.778Z,3.07
2018-11-07T21:05:29.200Z,3.43
2018-11-07T21:10:26.670Z,2.80
2018-11-07T21:15:24.160Z,4.13
2018-11-07T21:20:22.691Z,3.93
2018-11-07T21:25:20.223Z,3.80
2018-11-07T21:30:19.593Z,3.40
2018-11-07T21:35:17.277Z,4.70
2018-11-07T21:40:15.953Z,4.10
2018-11-07T21:45:14.247Z,3.50
2018-11-07T21:50:13.438Z,3.57
2018-11-07T21:55:10.862Z,4.03
2018-11-07T22:00:14.457Z,3.70
2018-11-07T22:05:12.901Z,4.10
2018-11-07T22:10:11.549Z,4.27
2018-11-07T22:15:09.623Z,4.70
2018-11-07T22:20:09.870Z,4.23
2018-11-07T22:25:07.636Z,3.53
2018-11-07T22:30:08.094Z,4.33
2018-11-07T22:35:06.547Z,4.40
2018-11-07T22:40:04.739Z,5.63
2018-11-07T22:45:04.845Z,5.00
2018-11-07T22:50:06.260Z,4.13
2018-11-07T22:55:06.387Z,5.10
2018-11-07T23:00:14.577Z,4.67
2018-11-07T23:05:13.260Z,5.47
2018-11-07T23:10:11.957Z,4.80
2018-11-07T23:15:10.865Z,4.93
2018-11-07T23:20:12.853Z,4.97
2018-11-07T23:25:15.053Z,5.00
2018-11-07T23:30:15.897Z,5.20
2018-11-07T23:35:20.418Z,5.37
2018-11-07T23:40:24.796Z,4.57
2018-11-07T23:45:23.256Z,5.30
2018-11-07T23:50:26.540Z,4.03
2018-11-07T23:55:28.081Z,4.10
